createdAt,value
2018-02-23T00:00:46.678Z,0.00
2018-02-23T00:01:47.110Z,0.00
2018-02-23T00:02:47.517Z,0.00
2018-02-23T00:03:47.933Z,0.00
2018-02-23T00:04:48.353Z,0.00
2018-02-23T00:05:48.770Z,0.00
2018-02-23T00:06:49.184Z,0.00
2018-02-23T00:07:49.599Z,0.00
2018-02-23T00:08:50.024Z,0.00
2018-02-23T00:09:50.445Z,0.00
2018-02-23T00:10:50.856Z,0.00
2018-02-23T00:11:51.269Z,0.00
2018-02-23T00:12:51.712Z,0.00
2018-02-23T00:13:52.114Z,0.00
2018-02-23T00:14:52.524Z,0.00
2018-02-23T00:15:52.946Z,0.00
2018-02-23T00:16:53.360Z,0.00
2018-02-23T00:17:53.787Z,0.00
2018-02-23T00:18:54.201Z,0.00
2018-02-23T00:19:54.618Z,0.00
2018-02-23T00:20:55.036Z,0.00
2018-02-23T00:21:55.456Z,0.00
2018-02-23T00:22:55.917Z,0.00
2018-02-23T00:23:56.323Z,0.00
2018-02-23T00:24:56.709Z,0.00
2018-02-23T00:25:57.126Z,0.00
2018-02-23T00:26:57.542Z,0.00
2018-02-23T00:27:57.991Z,0.00
2018-02-23T00:28:58.382Z,0.00
2018-02-23T00:29:58.799Z,0.00
2018-02-23T00:30:59.214Z,0.00
2018-02-23T00:31:59.632Z,0.00
2018-02-23T00:33:00.050Z,0.00
2018-02-23T00:34:00.470Z,0.00
2018-02-23T00:35:00.889Z,0.00
2018-02-23T00:36:01.322Z,0.00
2018-02-23T00:37:01.736Z,0.00
2018-02-23T00:38:02.164Z,0.00
2018-02-23T00:39:02.560Z,0.00
2018-02-23T00:40:02.980Z,0.00
2018-02-23T00:41:03.399Z,0.00
2018-02-23T00:42:03.853Z,0.00
2018-02-23T00:43:04.237Z,0.00
2018-02-23T00:44:04.655Z,0.00
2018-02-23T00:45:05.128Z,0.00
2018-02-23T00:46:05.489Z,0.00
2018-02-23T00:47:05.906Z,0.00
2018-02-23T00:48:06.324Z,0.00
2018-02-23T00:49:06.741Z,0.00
2018-02-23T00:50:07.155Z,0.00
2018-02-23T00:51:07.577Z,0.00
2018-02-23T00:52:07.997Z,0.00
2018-02-23T00:53:08.412Z,0.00
2018-02-23T00:54:08.900Z,0.00
2018-02-23T00:55:09.260Z,0.00
2018-02-23T00:56:09.673Z,0.00
2018-02-23T00:57:10.094Z,0.00
2018-02-23T00:58:10.527Z,0.00
2018-02-23T00:59:10.923Z,0.00
2018-02-23T01:00:11.394Z,0.00
2018-02-23T01:01:11.758Z,0.00
2018-02-23T01:02:12.177Z,0.00
2018-02-23T01:03:12.590Z,0.00
2018-02-23T01:04:13.012Z,0.00
2018-02-23T01:05:13.430Z,0.00
2018-02-23T01:06:13.847Z,0.00
2018-02-23T01:07:14.265Z,0.00
2018-02-23T01:08:14.684Z,0.00
2018-02-23T01:09:15.102Z,0.00
2018-02-23T01:10:15.520Z,0.00
2018-02-23T01:11:15.941Z,0.00
2018-02-23T01:12:16.355Z,0.00
2018-02-23T01:13:16.778Z,0.00
2018-02-23T01:14:17.188Z,0.00
2018-02-23T01:15:17.610Z,0.00
2018-02-23T01:16:18.027Z,0.00
2018-02-23T01:17:18.444Z,0.00
2018-02-23T01:18:18.863Z,0.00
2018-02-23T01:19:19.282Z,0.00
2018-02-23T01:20:19.700Z,0.00
2018-02-23T01:21:20.117Z,0.00
2018-02-23T01:22:20.535Z,0.00
2018-02-23T01:23:20.949Z,0.00
2018-02-23T01:24:21.377Z,0.00
2018-02-23T01:25:21.787Z,0.00
2018-02-23T01:26:22.202Z,0.00
2018-02-23T01:27:22.622Z,0.00
2018-02-23T01:28:23.047Z,0.00
2018-02-23T01:29:23.456Z,0.00
2018-02-23T01:30:23.876Z,0.00
2018-02-23T01:31:24.289Z,0.00
2018-02-23T01:32:24.711Z,0.00
2018-02-23T01:33:25.133Z,0.00
2018-02-23T01:34:25.545Z,0.00
2018-02-23T01:35:25.961Z,0.00
2018-02-23T01:36:26.385Z,0.00
2018-02-23T01:37:26.806Z,0.00
2018-02-23T01:38:27.218Z,0.00
2018-02-23T01:39:27.634Z,0.00
2018-02-23T01:40:28.050Z,0.00
2018-02-23T01:41:28.470Z,0.00
2018-02-23T01:42:28.888Z,0.00
2018-02-23T01:43:29.303Z,0.00
2018-02-23T01:44:29.720Z,0.00
2018-02-23T01:45:30.139Z,0.00
2018-02-23T01:46:30.555Z,0.00
2018-02-23T01:47:30.975Z,0.00
2018-02-23T01:48:31.403Z,0.00
2018-02-23T01:49:31.809Z,0.00
2018-02-23T01:50:32.227Z,0.00
2018-02-23T01:51:32.646Z,0.00
2018-02-23T01:52:33.060Z,0.00
2018-02-23T01:53:33.480Z,0.00
2018-02-23T01:54:33.895Z,0.00
2018-02-23T01:55:34.314Z,0.00
2018-02-23T01:56:34.748Z,0.00
2018-02-23T01:57:35.149Z,0.00
2018-02-23T01:58:35.576Z,0.00
2018-02-23T01:59:36.000Z,0.00
2018-02-23T02:00:36.407Z,0.00
2018-02-23T02:01:36.830Z,0.00
2018-02-23T02:02:37.236Z,0.00
2018-02-23T02:03:37.663Z,0.00
2018-02-23T02:04:38.071Z,0.00
2018-02-23T02:05:38.493Z,0.00
2018-02-23T02:06:38.918Z,0.00
2018-02-23T02:07:39.331Z,0.00
2018-02-23T02:08:39.754Z,0.00
2018-02-23T02:09:40.161Z,0.00
2018-02-23T02:10:40.584Z,0.00
2018-02-23T02:11:40.991Z,0.00
2018-02-23T02:12:41.411Z,0.00
2018-02-23T02:13:41.833Z,0.00
2018-02-23T02:14:42.246Z,0.00
2018-02-23T02:15:42.661Z,0.00
2018-02-23T02:16:43.080Z,0.00
2018-02-23T02:17:43.496Z,0.00
2018-02-23T02:18:43.912Z,0.00
2018-02-23T02:19:44.330Z,0.00
2018-02-23T02:20:44.746Z,0.00
2018-02-23T02:21:45.164Z,0.00
2018-02-23T02:22:45.583Z,0.00
2018-02-23T02:23:45.997Z,0.00
2018-02-23T02:24:46.424Z,0.00
2018-02-23T02:25:46.833Z,0.00
2018-02-23T02:26:47.249Z,0.00
2018-02-23T02:27:47.668Z,0.00
2018-02-23T02:28:48.085Z,0.00
2018-02-23T02:29:48.502Z,0.00
2018-02-23T02:30:48.922Z,0.00
2018-02-23T02:31:49.338Z,0.00
2018-02-23T02:32:49.756Z,0.00
2018-02-23T02:33:50.172Z,0.00
2018-02-23T02:34:50.592Z,0.00
2018-02-23T02:35:51.005Z,0.00
2018-02-23T02:36:51.424Z,0.00
2018-02-23T02:37:51.846Z,0.00
2018-02-23T02:38:52.259Z,0.00
2018-02-23T02:39:52.676Z,0.00
2018-02-23T02:40:53.091Z,0.00
2018-02-23T02:41:53.507Z,0.00
2018-02-23T02:42:53.928Z,0.00
2018-02-23T02:43:54.340Z,0.00
2018-02-23T02:44:54.767Z,0.00
2018-02-23T02:45:55.191Z,0.00
2018-02-23T02:46:55.603Z,0.00
2018-02-23T02:47:56.020Z,0.00
2018-02-23T02:48:56.434Z,0.00
2018-02-23T02:49:56.850Z,0.00
2018-02-23T02:50:57.266Z,0.00
2018-02-23T02:51:57.684Z,0.00
2018-02-23T02:52:58.102Z,0.00
2018-02-23T02:53:58.523Z,0.00
2018-02-23T02:54:58.933Z,0.00
2018-02-23T02:55:59.361Z,0.00
2018-02-23T02:56:59.772Z,0.00
2018-02-23T02:58:00.183Z,0.00
2018-02-23T02:59:00.600Z,0.00
2018-02-23T03:00:01.030Z,0.00
2018-02-23T03:01:01.958Z,0.00
2018-02-23T03:02:01.866Z,0.00
2018-02-23T03:03:02.288Z,0.00
2018-02-23T03:04:02.692Z,0.00
2018-02-23T03:05:03.109Z,0.00
2018-02-23T03:06:03.519Z,0.00
2018-02-23T03:07:03.938Z,0.00
2018-02-23T03:08:04.358Z,0.00
2018-02-23T03:09:04.772Z,0.00
2018-02-23T03:10:05.192Z,0.00
2018-02-23T03:11:05.605Z,0.00
2018-02-23T03:12:06.027Z,0.00
2018-02-23T03:13:06.436Z,0.00
2018-02-23T03:14:06.862Z,0.00
2018-02-23T03:15:07.271Z,0.00
2018-02-23T03:16:07.712Z,0.00
2018-02-23T03:17:08.110Z,0.00
2018-02-23T03:18:08.522Z,0.00
2018-02-23T03:19:08.950Z,0.00
2018-02-23T03:20:09.356Z,0.00
2018-02-23T03:21:09.774Z,0.00
2018-02-23T03:22:10.189Z,0.00
2018-02-23T03:23:10.608Z,0.00
2018-02-23T03:24:11.023Z,0.00
2018-02-23T03:25:11.441Z,0.00
2018-02-23T03:26:11.855Z,0.00
2018-02-23T03:27:12.275Z,0.00
2018-02-23T03:28:12.693Z,0.00
2018-02-23T03:29:13.108Z,0.00
2018-02-23T03:30:13.530Z,0.00
2018-02-23T03:31:13.946Z,0.00
2018-02-23T03:32:14.360Z,0.00
2018-02-23T03:33:14.774Z,0.00
2018-02-23T03:34:15.192Z,0.00
2018-02-23T03:35:15.610Z,0.00
2018-02-23T03:36:16.029Z,0.00
2018-02-23T03:37:16.441Z,0.00
2018-02-23T03:38:16.858Z,0.00
2018-02-23T03:39:17.275Z,0.00
2018-02-23T03:40:17.693Z,0.00
2018-02-23T03:41:18.109Z,0.00
2018-02-23T03:42:18.536Z,0.00
2018-02-23T03:43:18.941Z,0.00
2018-02-23T03:44:19.362Z,0.00
2018-02-23T03:45:19.775Z,0.00
2018-02-23T03:46:20.195Z,0.00
2018-02-23T03:47:20.608Z,0.00
2018-02-23T03:48:21.029Z,0.00
2018-02-23T03:49:21.440Z,0.00
2018-02-23T03:50:21.859Z,0.00
2018-02-23T03:51:22.276Z,0.00
2018-02-23T03:52:22.692Z,0.00
2018-02-23T03:53:23.111Z,0.00
2018-02-23T03:54:23.538Z,0.00
2018-02-23T03:55:23.945Z,0.00
2018-02-23T03:56:24.359Z,0.00
2018-02-23T03:57:24.777Z,0.00
2018-02-23T03:58:25.199Z,0.00
2018-02-23T03:59:25.611Z,0.00
2018-02-23T04:00:26.032Z,0.00
2018-02-23T04:01:26.446Z,0.00
2018-02-23T04:02:26.859Z,0.00
2018-02-23T04:03:27.280Z,0.00
2018-02-23T04:04:27.692Z,0.00
2018-02-23T04:05:28.112Z,0.00
2018-02-23T04:06:28.526Z,0.00
2018-02-23T04:07:28.943Z,0.00
2018-02-23T04:08:29.361Z,0.00
2018-02-23T04:09:29.775Z,0.00
2018-02-23T04:10:30.190Z,0.00
2018-02-23T04:11:30.609Z,0.00
2018-02-23T04:12:31.028Z,0.00
2018-02-23T04:13:31.446Z,0.00
2018-02-23T04:14:31.859Z,0.00
2018-02-23T04:15:32.292Z,0.00
2018-02-23T04:16:32.695Z,0.00
2018-02-23T04:17:33.110Z,0.00
2018-02-23T04:18:33.525Z,0.00
2018-02-23T04:19:33.943Z,0.00
2018-02-23T04:20:34.372Z,0.00
2018-02-23T04:21:34.779Z,0.00
2018-02-23T04:22:35.203Z,0.00
2018-02-23T04:23:35.621Z,0.00
2018-02-23T04:24:36.043Z,0.00
2018-02-23T04:25:36.442Z,0.00
2018-02-23T04:26:36.859Z,0.00
2018-02-23T04:27:37.293Z,0.00
2018-02-23T04:28:37.702Z,0.00
2018-02-23T04:29:38.109Z,0.00
2018-02-23T04:30:38.554Z,0.00
2018-02-23T04:31:38.950Z,0.00
2018-02-23T04:32:39.360Z,0.00
2018-02-23T04:33:39.774Z,0.00
2018-02-23T04:34:40.201Z,0.00
2018-02-23T04:35:40.619Z,0.00
2018-02-23T04:36:41.029Z,0.00
2018-02-23T04:37:41.450Z,0.00
2018-02-23T04:38:41.861Z,0.00
2018-02-23T04:39:42.274Z,0.00
2018-02-23T04:40:42.690Z,0.00
2018-02-23T04:41:43.102Z,0.00
2018-02-23T04:42:43.534Z,0.00
2018-02-23T04:43:43.941Z,0.00
2018-02-23T04:44:44.374Z,0.00
2018-02-23T04:45:44.773Z,0.00
2018-02-23T04:46:45.200Z,0.00
2018-02-23T04:47:45.611Z,0.00
2018-02-23T04:48:46.025Z,0.00
2018-02-23T04:49:46.479Z,0.00
2018-02-23T04:50:46.891Z,0.00
2018-02-23T04:51:47.279Z,0.00
2018-02-23T04:52:47.687Z,0.00
2018-02-23T04:53:48.105Z,0.00
2018-02-23T04:54:48.527Z,0.00
2018-02-23T04:55:48.935Z,0.00
2018-02-23T04:56:49.346Z,0.00
2018-02-23T04:57:49.770Z,0.00
2018-02-23T04:58:50.185Z,0.00
2018-02-23T04:59:50.606Z,0.00
2018-02-23T05:00:51.125Z,0.00
2018-02-23T05:01:51.420Z,0.00
2018-02-23T05:02:51.848Z,0.00
2018-02-23T05:03:52.267Z,0.00
2018-02-23T05:04:52.685Z,0.00
2018-02-23T05:05:53.098Z,0.00
2018-02-23T05:06:53.515Z,0.00
2018-02-23T05:07:53.930Z,0.00
2018-02-23T05:08:54.346Z,0.00
2018-02-23T05:09:54.763Z,0.00
2018-02-23T05:10:55.179Z,0.00
2018-02-23T05:11:55.588Z,0.00
2018-02-23T05:12:56.005Z,0.00
2018-02-23T05:13:56.420Z,0.00
2018-02-23T05:14:56.836Z,0.00
2018-02-23T05:15:57.254Z,0.00
2018-02-23T05:16:57.666Z,0.00
2018-02-23T05:17:58.085Z,0.00
2018-02-23T05:18:58.499Z,0.00
2018-02-23T05:19:58.913Z,0.00
2018-02-23T05:20:59.329Z,0.00
2018-02-23T05:21:59.758Z,0.00
2018-02-23T05:23:00.163Z,0.00
2018-02-23T05:24:00.601Z,0.00
2018-02-23T05:25:00.998Z,0.00
2018-02-23T05:26:01.411Z,0.00
2018-02-23T05:27:01.836Z,0.00
2018-02-23T05:28:02.242Z,0.00
2018-02-23T05:29:02.665Z,0.00
2018-02-23T05:30:03.079Z,0.00
2018-02-23T05:31:03.507Z,0.00
2018-02-23T05:32:03.906Z,4.00
2018-02-23T05:33:04.318Z,4.00
2018-02-23T05:34:04.734Z,0.00
2018-02-23T05:35:05.150Z,0.00
2018-02-23T05:36:05.573Z,4.00
2018-02-23T05:37:05.982Z,4.00
2018-02-23T05:38:06.400Z,0.00
2018-02-23T05:39:06.812Z,4.00
2018-02-23T05:40:07.233Z,4.00
2018-02-23T05:41:07.646Z,8.00
2018-02-23T05:42:08.064Z,8.00
2018-02-23T05:43:08.475Z,8.00
2018-02-23T05:44:08.904Z,8.00
2018-02-23T05:45:09.308Z,12.00
2018-02-23T05:46:09.724Z,12.00
2018-02-23T05:47:10.142Z,16.00
2018-02-23T05:48:10.552Z,16.00
2018-02-23T05:49:10.968Z,20.00
2018-02-23T05:50:11.386Z,24.00
2018-02-23T05:51:11.804Z,28.00
2018-02-23T05:52:12.221Z,32.00
2018-02-23T05:53:12.636Z,32.00
2018-02-23T05:54:13.046Z,40.00
2018-02-23T05:55:13.462Z,48.00
2018-02-23T05:56:13.880Z,52.00
2018-02-23T05:57:14.295Z,60.00
2018-02-23T05:58:14.708Z,68.00
2018-02-23T05:59:15.126Z,72.00
2018-02-23T06:00:15.608Z,84.00
2018-02-23T06:01:15.959Z,92.00
2018-02-23T06:02:16.372Z,104.00
2018-02-23T06:03:16.789Z,116.00
2018-02-23T06:04:17.202Z,128.00
2018-02-23T06:05:17.624Z,140.00
2018-02-23T06:06:18.033Z,156.00
2018-02-23T06:07:18.451Z,172.00
2018-02-23T06:08:18.869Z,188.00
2018-02-23T06:09:19.284Z,200.00
2018-02-23T06:10:19.736Z,220.00
2018-02-23T06:11:20.109Z,236.00
2018-02-23T06:12:20.537Z,260.00
2018-02-23T06:13:20.952Z,280.00
2018-02-23T06:14:21.360Z,300.00
2018-02-23T06:15:21.776Z,316.00
2018-02-23T06:16:22.202Z,340.00
2018-02-23T06:17:22.620Z,364.00
2018-02-23T06:18:23.026Z,392.00
2018-02-23T06:19:23.433Z,416.00
2018-02-23T06:20:23.846Z,436.00
2018-02-23T06:21:24.267Z,464.00
2018-02-23T06:22:24.676Z,492.00
2018-02-23T06:23:25.092Z,520.00
2018-02-23T06:24:25.514Z,552.00
2018-02-23T06:25:25.924Z,584.00
2018-02-23T06:26:26.339Z,616.00
2018-02-23T06:27:26.754Z,640.00
2018-02-23T06:28:27.170Z,672.00
2018-02-23T06:29:27.584Z,696.00
2018-02-23T06:30:28.009Z,728.00
2018-02-23T06:31:28.447Z,756.00
2018-02-23T06:32:28.830Z,792.00
2018-02-23T06:33:29.247Z,824.00
2018-02-23T06:34:29.663Z,856.00
2018-02-23T06:35:30.081Z,884.00
2018-02-23T06:36:30.498Z,916.00
2018-02-23T06:37:30.912Z,948.00
2018-02-23T06:38:31.332Z,976.00
2018-02-23T06:39:31.736Z,1004.00
2018-02-23T06:40:32.160Z,1040.00
2018-02-23T06:41:32.575Z,1068.00
2018-02-23T06:42:33.034Z,1108.00
2018-02-23T06:43:33.399Z,1148.00
2018-02-23T06:44:33.826Z,1176.00
2018-02-23T06:45:34.228Z,1212.00
2018-02-23T06:46:34.646Z,1240.00
2018-02-23T06:47:35.056Z,1280.00
2018-02-23T06:48:35.506Z,1308.00
2018-02-23T06:49:35.947Z,1352.00
2018-02-23T06:50:36.302Z,1388.00
2018-02-23T06:51:36.723Z,1416.00
2018-02-23T06:52:37.135Z,1456.00
2018-02-23T06:53:37.548Z,1492.00
2018-02-23T06:54:37.969Z,1536.00
2018-02-23T06:55:38.381Z,1596.00
2018-02-23T06:56:38.796Z,1640.00
2018-02-23T06:57:39.221Z,1664.00
2018-02-23T06:58:39.625Z,1716.00
2018-02-23T06:59:40.047Z,1768.00
2018-02-23T07:00:40.455Z,1808.00
2018-02-23T07:01:40.873Z,1840.00
2018-02-23T07:02:41.284Z,1888.00
2018-02-23T07:03:41.700Z,1936.00
2018-02-23T07:04:42.152Z,1944.00
2018-02-23T07:05:42.528Z,1960.00
2018-02-23T07:06:42.945Z,1988.00
2018-02-23T07:07:43.365Z,2028.00
2018-02-23T07:08:43.777Z,2076.00
2018-02-23T07:09:44.194Z,2128.00
2018-02-23T07:10:44.627Z,2132.00
2018-02-23T07:11:45.023Z,2152.00
2018-02-23T07:12:45.441Z,2280.00
2018-02-23T07:13:45.856Z,2336.00
2018-02-23T07:14:46.272Z,2320.00
2018-02-23T07:15:46.689Z,2348.00
2018-02-23T07:16:47.102Z,2392.00
2018-02-23T07:17:47.522Z,2420.00
2018-02-23T07:18:47.929Z,2480.00
2018-02-23T07:19:48.346Z,2504.00
2018-02-23T07:20:48.761Z,2548.00
2018-02-23T07:21:49.177Z,2580.00
2018-02-23T07:22:49.592Z,2600.00
2018-02-23T07:23:50.010Z,2608.00
2018-02-23T07:24:50.428Z,2648.00
2018-02-23T07:25:50.841Z,2716.00
2018-02-23T07:26:51.254Z,2796.00
2018-02-23T07:27:51.698Z,2832.00
2018-02-23T07:28:52.113Z,2836.00
2018-02-23T07:29:52.502Z,2864.00
2018-02-23T07:30:52.916Z,2932.00
2018-02-23T07:31:53.365Z,2964.00
2018-02-23T07:32:53.748Z,2988.00
2018-02-23T07:33:54.162Z,3024.00
2018-02-23T07:34:54.579Z,3076.00
2018-02-23T07:35:54.993Z,3100.00
2018-02-23T07:36:55.413Z,3148.00
2018-02-23T07:37:55.825Z,3220.00
2018-02-23T07:38:56.240Z,3252.00
2018-02-23T07:39:56.658Z,3300.00
2018-02-23T07:40:57.076Z,3356.00
2018-02-23T07:41:57.487Z,3484.00
2018-02-23T07:42:57.906Z,3520.00
2018-02-23T07:43:58.323Z,3580.00
2018-02-23T07:44:58.738Z,3612.00
2018-02-23T07:45:59.149Z,3644.00
2018-02-23T07:46:59.563Z,3780.00
2018-02-23T07:47:59.985Z,3840.00
2018-02-23T07:49:00.395Z,3880.00
2018-02-23T07:50:00.811Z,3968.00
2018-02-23T07:51:01.227Z,4024.00
2018-02-23T07:52:01.657Z,4016.00
2018-02-23T07:53:02.060Z,4012.00
2018-02-23T07:54:02.476Z,4012.00
2018-02-23T07:55:02.893Z,4028.00
2018-02-23T07:56:03.308Z,4132.00
2018-02-23T07:57:03.724Z,4244.00
2018-02-23T07:58:04.140Z,4376.00
2018-02-23T07:59:04.554Z,4432.00
2018-02-23T08:00:04.970Z,4436.00
2018-02-23T08:01:05.386Z,4536.00
2018-02-23T08:02:05.830Z,4672.00
2018-02-23T08:03:06.233Z,4728.00
2018-02-23T08:04:06.634Z,4760.00
2018-02-23T08:05:07.053Z,4844.00
2018-02-23T08:06:07.466Z,5016.00
2018-02-23T08:07:07.881Z,5096.00
2018-02-23T08:08:08.308Z,5248.00
2018-02-23T08:09:08.717Z,5196.00
2018-02-23T08:10:09.131Z,5176.00
2018-02-23T08:11:09.548Z,5288.00
2018-02-23T08:12:09.964Z,5404.00
2018-02-23T08:13:10.381Z,5524.00
2018-02-23T08:14:10.795Z,5632.00
2018-02-23T08:15:11.211Z,5740.00
2018-02-23T08:16:11.628Z,5992.00
2018-02-23T08:17:12.047Z,6028.00
2018-02-23T08:18:12.461Z,6044.00
2018-02-23T08:19:12.876Z,6136.00
2018-02-23T08:20:13.296Z,6192.00
2018-02-23T08:21:13.795Z,6164.00
2018-02-23T08:22:14.121Z,6216.00
2018-02-23T08:23:14.545Z,6284.00
2018-02-23T08:24:14.973Z,6284.00
2018-02-23T08:25:15.380Z,6396.00
2018-02-23T08:26:15.794Z,6728.00
2018-02-23T08:27:16.211Z,6848.00
2018-02-23T08:28:16.631Z,6804.00
2018-02-23T08:29:17.045Z,6576.00
2018-02-23T08:30:17.466Z,6572.00
2018-02-23T08:31:17.887Z,6692.00
2018-02-23T08:32:18.330Z,6780.00
2018-02-23T08:33:18.715Z,6788.00
2018-02-23T08:34:19.131Z,7016.00
2018-02-23T08:35:19.548Z,6976.00
2018-02-23T08:36:19.967Z,7000.00
2018-02-23T08:37:20.384Z,7088.00
2018-02-23T08:38:20.799Z,7164.00
2018-02-23T08:39:21.217Z,7412.00
2018-02-23T08:40:21.645Z,7708.00
2018-02-23T08:41:22.060Z,7944.00
2018-02-23T08:42:22.470Z,7880.00
2018-02-23T08:43:22.900Z,8072.00
2018-02-23T08:44:23.319Z,8212.00
2018-02-23T08:45:23.735Z,8492.00
2018-02-23T08:46:24.160Z,9048.00
2018-02-23T08:47:24.561Z,9492.00
2018-02-23T08:48:24.982Z,9348.00
2018-02-23T08:49:25.429Z,9716.00
2018-02-23T08:50:25.811Z,9940.00
2018-02-23T08:51:26.232Z,9848.00
2018-02-23T08:52:26.651Z,10156.00
2018-02-23T08:53:27.066Z,9940.00
2018-02-23T08:54:27.479Z,10624.00
2018-02-23T08:55:27.899Z,10716.00
2018-02-23T08:56:28.318Z,10812.00
2018-02-23T08:57:28.737Z,10832.00
2018-02-23T08:58:29.177Z,6884.00
2018-02-23T08:59:29.576Z,11148.00
2018-02-23T09:00:29.994Z,11532.00
2018-02-23T09:01:30.413Z,9128.00
2018-02-23T09:02:30.839Z,6492.00
2018-02-23T09:03:31.253Z,10196.00
2018-02-23T09:04:31.692Z,11284.00
2018-02-23T09:05:32.094Z,11364.00
2018-02-23T09:06:32.517Z,10504.00
2018-02-23T09:07:32.935Z,11000.00
2018-02-23T09:08:33.361Z,11348.00
2018-02-23T09:09:33.788Z,10984.00
2018-02-23T09:10:34.203Z,11692.00
2018-02-23T09:11:34.626Z,11412.00
2018-02-23T09:12:35.099Z,11812.00
2018-02-23T09:13:35.472Z,11928.00
2018-02-23T09:14:35.892Z,11356.00
2018-02-23T09:15:36.325Z,11668.00
2018-02-23T09:16:36.745Z,7264.00
2018-02-23T09:17:37.168Z,11936.00
2018-02-23T09:18:37.589Z,12184.00
2018-02-23T09:19:38.015Z,11904.00
2018-02-23T09:20:38.448Z,8164.00
2018-02-23T09:21:38.869Z,11960.00
2018-02-23T09:22:39.291Z,11336.00
2018-02-23T09:23:39.715Z,10492.00
2018-02-23T09:24:40.173Z,11196.00
2018-02-23T09:25:40.573Z,11356.00
2018-02-23T09:26:40.993Z,11320.00
2018-02-23T09:27:41.426Z,11360.00
2018-02-23T09:28:41.845Z,11280.00
2018-02-23T09:29:42.272Z,11452.00
2018-02-23T09:30:42.697Z,11176.00
2018-02-23T09:31:43.126Z,10840.00
2018-02-23T09:32:43.556Z,11304.00
2018-02-23T09:33:43.988Z,9660.00
2018-02-23T09:34:44.406Z,11108.00
2018-02-23T09:35:44.827Z,8336.00
2018-02-23T09:36:45.254Z,8296.00
2018-02-23T09:37:45.684Z,11472.00
2018-02-23T09:38:46.116Z,11104.00
2018-02-23T09:39:46.537Z,11784.00
2018-02-23T09:40:46.957Z,11060.00
2018-02-23T09:41:47.391Z,11020.00
2018-02-23T09:42:47.812Z,11128.00
2018-02-23T09:43:48.239Z,11428.00
2018-02-23T09:44:48.662Z,11260.00
2018-02-23T09:45:49.094Z,11476.00
2018-02-23T09:46:49.516Z,11512.00
2018-02-23T09:47:49.950Z,10580.00
2018-02-23T09:48:50.426Z,11768.00
2018-02-23T09:49:50.800Z,11788.00
2018-02-23T09:50:51.224Z,11444.00
2018-02-23T09:51:51.658Z,11820.00
2018-02-23T09:52:52.079Z,11672.00
2018-02-23T09:53:52.509Z,11668.00
2018-02-23T09:54:52.933Z,11260.00
2018-02-23T09:55:53.365Z,11496.00
2018-02-23T09:56:53.817Z,11480.00
2018-02-23T09:57:54.227Z,11704.00
2018-02-23T09:58:54.653Z,11744.00
2018-02-23T09:59:55.096Z,11788.00
2018-02-23T10:00:55.512Z,12064.00
2018-02-23T10:01:55.943Z,12164.00
2018-02-23T10:02:56.377Z,12432.00
2018-02-23T10:03:56.908Z,13904.00
2018-02-23T10:04:57.236Z,23392.00
2018-02-23T10:05:57.667Z,34592.00
2018-02-23T10:06:58.102Z,35648.00
2018-02-23T10:07:58.522Z,36640.00
2018-02-23T10:08:58.963Z,41760.00
2018-02-23T10:09:59.388Z,40320.00
2018-02-23T10:10:59.815Z,38880.00
2018-02-23T10:12:00.249Z,38688.00
2018-02-23T10:13:00.694Z,38528.00
2018-02-23T10:14:01.120Z,39744.00
2018-02-23T10:15:01.553Z,40480.00
2018-02-23T10:16:01.980Z,41024.00
2018-02-23T10:17:02.416Z,41408.00
2018-02-23T10:18:02.846Z,41632.00
2018-02-23T10:19:03.273Z,42048.00
2018-02-23T10:20:03.708Z,42112.00
2018-02-23T10:21:04.144Z,44000.00
2018-02-23T10:22:04.573Z,44672.00
2018-02-23T10:23:05.004Z,45344.00
2018-02-23T10:24:05.447Z,45792.00
2018-02-23T10:28:12.127Z,41408.00
2018-02-23T10:29:12.558Z,39840.00
2018-02-23T10:31:07.176Z,41152.00
2018-02-23T10:32:07.609Z,41888.00
2018-02-23T10:34:02.241Z,41664.00
2018-02-23T10:35:02.661Z,43904.00
2018-02-23T10:36:58.254Z,46432.00
2018-02-23T10:37:58.680Z,46400.00
2018-02-23T10:38:59.145Z,42592.00
2018-02-23T10:39:59.547Z,38112.00
2018-02-23T10:40:59.983Z,33408.00
2018-02-23T10:42:00.412Z,31360.00
2018-02-23T10:43:00.858Z,24256.00
2018-02-23T10:44:01.291Z,30560.00
2018-02-23T10:45:01.752Z,40672.00
2018-02-23T10:46:02.164Z,44032.00
2018-02-23T10:47:02.625Z,47072.00
2018-02-23T10:48:03.027Z,49600.00
2018-02-23T10:49:03.460Z,50176.00
2018-02-23T10:50:03.903Z,50816.00
2018-02-23T10:51:04.342Z,50784.00
2018-02-23T10:52:04.775Z,48928.00
2018-02-23T10:53:05.202Z,47136.00
2018-02-23T10:54:05.639Z,43072.00
2018-02-23T10:55:06.090Z,44640.00
2018-02-23T10:56:06.535Z,47520.00
2018-02-23T10:57:06.968Z,45664.00
2018-02-23T10:58:07.393Z,44480.00
2018-02-23T10:59:07.828Z,45568.00
2018-02-23T11:00:08.269Z,46208.00
2018-02-23T11:01:08.717Z,45728.00
2018-02-23T11:02:09.131Z,43200.00
2018-02-23T11:03:09.559Z,41344.00
2018-02-23T11:04:10.037Z,41216.00
2018-02-23T11:05:10.465Z,38336.00
2018-02-23T11:06:10.903Z,38272.00
2018-02-23T11:07:11.352Z,40512.00
2018-02-23T11:08:11.748Z,43328.00
2018-02-23T11:09:12.185Z,46560.00
2018-02-23T11:10:12.641Z,46432.00
2018-02-23T11:11:13.051Z,47488.00
2018-02-23T11:12:13.479Z,49152.00
2018-02-23T11:13:13.926Z,46368.00
2018-02-23T11:14:14.360Z,45536.00
2018-02-23T11:15:14.802Z,42944.00
2018-02-23T11:16:15.226Z,40000.00
2018-02-23T11:17:15.689Z,38528.00
2018-02-23T11:18:16.117Z,39424.00
2018-02-23T11:19:16.553Z,41216.00
2018-02-23T11:20:16.990Z,42336.00
2018-02-23T11:21:17.445Z,46112.00
2018-02-23T11:22:17.866Z,39680.00
2018-02-23T11:23:18.288Z,37408.00
2018-02-23T11:24:18.753Z,47680.00
2018-02-23T11:25:19.195Z,46720.00
2018-02-23T11:26:19.626Z,47520.00
2018-02-23T11:27:20.064Z,48896.00
2018-02-23T11:28:20.509Z,48320.00
2018-02-23T11:29:20.939Z,47040.00
2018-02-23T11:30:21.366Z,46368.00
2018-02-23T11:31:21.812Z,45760.00
2018-02-23T11:32:22.220Z,44864.00
2018-02-23T11:33:22.674Z,42624.00
2018-02-23T11:34:23.100Z,43904.00
2018-02-23T11:35:23.517Z,45024.00
2018-02-23T11:36:23.964Z,45920.00
2018-02-23T11:37:24.402Z,45568.00
2018-02-23T11:38:24.847Z,45312.00
2018-02-23T11:39:25.274Z,47328.00
2018-02-23T11:40:25.712Z,48832.00
2018-02-23T11:41:26.148Z,47424.00
2018-02-23T11:42:26.580Z,45152.00
2018-02-23T11:43:27.031Z,42784.00
2018-02-23T11:44:27.446Z,41440.00
2018-02-23T11:45:27.891Z,40480.00
2018-02-23T11:46:28.314Z,38528.00
2018-02-23T11:47:28.755Z,39328.00
2018-02-23T11:48:29.185Z,40000.00
2018-02-23T11:49:29.628Z,41856.00
2018-02-23T11:50:30.109Z,42400.00
2018-02-23T11:51:30.508Z,36032.00
2018-02-23T11:52:30.945Z,15392.00
2018-02-23T11:53:31.370Z,6832.00
2018-02-23T11:54:31.835Z,6424.00
2018-02-23T11:55:32.228Z,6440.00
2018-02-23T11:56:32.677Z,6292.00
2018-02-23T11:57:33.103Z,6336.00
2018-02-23T11:58:33.529Z,6308.00
2018-02-23T11:59:33.950Z,6260.00
2018-02-23T12:00:34.402Z,6548.00
2018-02-23T12:01:34.812Z,6628.00
2018-02-23T12:02:35.252Z,6560.00
2018-02-23T12:03:35.683Z,6468.00
2018-02-23T12:04:36.118Z,6296.00
2018-02-23T12:05:36.525Z,5992.00
2018-02-23T12:06:36.950Z,6180.00
2018-02-23T12:07:37.380Z,6112.00
2018-02-23T12:08:37.804Z,6160.00
2018-02-23T12:09:38.235Z,5992.00
2018-02-23T12:10:38.684Z,5984.00
2018-02-23T12:11:39.072Z,5896.00
2018-02-23T12:12:39.504Z,5844.00
2018-02-23T12:13:39.946Z,5800.00
2018-02-23T12:14:40.342Z,5868.00
2018-02-23T12:15:40.780Z,5764.00
2018-02-23T12:16:41.206Z,5804.00
2018-02-23T12:17:41.616Z,5800.00
2018-02-23T12:18:42.045Z,5752.00
2018-02-23T12:19:42.476Z,5892.00
2018-02-23T12:20:42.888Z,5732.00
2018-02-23T12:21:43.328Z,5688.00
2018-02-23T12:22:43.727Z,5612.00
2018-02-23T12:23:44.156Z,5620.00
2018-02-23T12:24:44.576Z,5440.00
2018-02-23T12:25:44.997Z,5496.00
2018-02-23T12:26:45.420Z,5528.00
2018-02-23T12:27:45.847Z,5584.00
2018-02-23T12:28:46.262Z,5652.00
2018-02-23T12:29:46.682Z,5576.00
2018-02-23T12:30:47.147Z,5496.00
2018-02-23T12:31:47.523Z,5456.00
2018-02-23T12:32:47.953Z,5296.00
2018-02-23T12:33:48.365Z,5152.00
2018-02-23T12:34:48.785Z,5080.00
2018-02-23T12:35:49.226Z,5112.00
2018-02-23T12:36:49.635Z,5020.00
2018-02-23T12:37:50.051Z,4916.00
2018-02-23T12:38:50.477Z,4884.00
2018-02-23T12:39:50.909Z,4920.00
2018-02-23T12:40:51.315Z,4864.00
2018-02-23T12:41:51.750Z,4840.00
2018-02-23T12:42:52.173Z,4812.00
2018-02-23T12:43:52.576Z,4688.00
2018-02-23T12:44:53.016Z,4588.00
2018-02-23T12:45:53.417Z,4680.00